createdAt,value
2019-03-24T00:00:08.888Z,137.63
2019-03-24T00:02:42.164Z,133.47
2019-03-24T00:05:14.946Z,141.67
2019-03-24T00:07:47.758Z,140.27
2019-03-24T00:10:20.567Z,136.60
2019-03-24T00:12:53.409Z,135.50
2019-03-24T00:15:26.804Z,133.47
2019-03-24T00:17:59.805Z,132.33
2019-03-24T00:20:32.573Z,135.13
2019-03-24T00:23:05.578Z,118.80
2019-03-24T00:25:38.341Z,116.70
2019-03-24T00:28:11.455Z,107.70
2019-03-24T00:30:44.260Z,108.80
2019-03-24T00:33:17.041Z,105.70
2019-03-24T00:35:49.837Z,105.63
2019-03-24T00:38:22.717Z,103.37
2019-03-24T00:40:55.562Z,102.37
2019-03-24T00:43:28.315Z,99.57
2019-03-24T00:46:01.516Z,96.83
2019-03-24T00:48:34.389Z,95.43
2019-03-24T00:51:07.529Z,94.07
2019-03-24T00:53:40.360Z,82.77
2019-03-24T00:56:13.125Z,80.47
2019-03-24T00:58:45.991Z,88.00
2019-03-24T01:01:19.349Z,103.33
2019-03-24T01:03:52.145Z,102.73
2019-03-24T01:06:25.021Z,122.70
2019-03-24T01:08:57.803Z,102.57
2019-03-24T01:11:31.127Z,98.67
2019-03-24T01:14:03.917Z,87.50
2019-03-24T01:16:36.748Z,75.60
2019-03-24T01:19:09.741Z,70.63
2019-03-24T01:21:42.621Z,71.73
2019-03-24T01:24:15.533Z,71.10
2019-03-24T01:26:48.307Z,67.20
2019-03-24T01:29:21.473Z,70.00
2019-03-24T01:31:54.251Z,65.73
2019-03-24T01:34:27.123Z,67.00
2019-03-24T01:37:00.013Z,66.00
2019-03-24T01:39:32.819Z,62.93
2019-03-24T01:42:07.629Z,61.97
2019-03-24T01:44:41.245Z,58.50
2019-03-24T01:47:14.050Z,58.20
2019-03-24T01:49:46.822Z,56.63
2019-03-24T01:52:19.611Z,57.90
2019-03-24T01:54:52.427Z,59.43
2019-03-24T01:57:25.205Z,54.70
2019-03-24T01:59:57.995Z,54.17
2019-03-24T02:02:31.005Z,52.30
2019-03-24T02:05:04.005Z,50.77
2019-03-24T02:07:36.793Z,51.10
2019-03-24T02:10:10.435Z,52.07
2019-03-24T02:12:43.264Z,47.37
2019-03-24T02:15:16.293Z,49.50
2019-03-24T02:17:49.294Z,53.63
2019-03-24T02:20:22.061Z,52.83
2019-03-24T02:22:54.857Z,54.77
2019-03-24T02:25:27.677Z,61.77
2019-03-24T02:28:00.711Z,53.70
2019-03-24T02:30:33.480Z,53.70
2019-03-24T02:33:06.234Z,56.57
2019-03-24T02:35:39.004Z,54.50
2019-03-24T02:38:11.925Z,50.70
2019-03-24T02:40:44.686Z,53.87
2019-03-24T02:43:17.417Z,50.13
2019-03-24T02:45:50.147Z,56.10
2019-03-24T02:48:22.940Z,51.10
2019-03-24T02:50:55.827Z,55.37
2019-03-24T02:53:28.820Z,51.13
2019-03-24T02:56:01.623Z,48.57
2019-03-24T02:58:34.523Z,35.53
2019-03-24T03:01:08.483Z,26.77
2019-03-24T03:03:41.223Z,24.83
2019-03-24T03:06:14.009Z,20.90
2019-03-24T03:08:46.747Z,21.07
2019-03-24T03:11:19.458Z,25.33
2019-03-24T03:13:52.212Z,40.50
2019-03-24T03:16:37.908Z,44.17
2019-03-24T03:18:59.406Z,52.93
2019-03-24T03:21:32.271Z,50.97
2019-03-24T03:24:05.024Z,48.57
2019-03-24T03:26:37.809Z,51.17
2019-03-24T03:29:10.540Z,51.37
2019-03-24T03:31:43.348Z,52.90
2019-03-24T03:34:16.161Z,57.90
2019-03-24T03:36:49.082Z,60.93
2019-03-24T03:39:22.053Z,59.93
2019-03-24T03:41:54.797Z,45.93
2019-03-24T03:44:27.535Z,44.83
2019-03-24T03:47:00.319Z,48.07
2019-03-24T03:49:33.151Z,57.03
2019-03-24T03:52:05.909Z,53.00
2019-03-24T03:54:38.691Z,39.87
2019-03-24T03:57:11.544Z,36.23
2019-03-24T03:59:44.324Z,36.67
2019-03-24T04:02:17.128Z,38.07
2019-03-24T04:04:49.851Z,40.57
2019-03-24T04:07:22.634Z,43.97
2019-03-24T04:09:55.396Z,40.73
2019-03-24T04:12:29.454Z,38.53
2019-03-24T04:15:02.210Z,47.80
2019-03-24T04:17:34.940Z,51.00
2019-03-24T04:20:08.079Z,50.03
2019-03-24T04:22:40.823Z,54.40
2019-03-24T04:25:13.603Z,59.87
2019-03-24T04:27:46.349Z,58.47
2019-03-24T04:30:19.199Z,50.47
2019-03-24T04:32:52.033Z,43.30
2019-03-24T04:35:24.909Z,41.70
2019-03-24T04:37:57.656Z,39.60
2019-03-24T04:40:31.220Z,37.00
2019-03-24T04:43:03.993Z,35.93
2019-03-24T04:45:36.744Z,35.00
2019-03-24T04:48:09.513Z,34.73
2019-03-24T04:50:42.343Z,35.67
2019-03-24T04:53:15.121Z,36.07
2019-03-24T04:55:47.903Z,34.63
2019-03-24T04:58:20.686Z,34.30
2019-03-24T05:00:53.417Z,35.10
2019-03-24T05:03:26.369Z,34.87
2019-03-24T05:05:59.392Z,36.83
2019-03-24T05:08:32.145Z,36.40
2019-03-24T05:11:04.951Z,38.93
2019-03-24T05:13:37.684Z,38.67
2019-03-24T05:16:10.998Z,41.27
2019-03-24T05:18:43.750Z,39.40
2019-03-24T05:21:16.542Z,43.73
2019-03-24T05:23:49.327Z,46.00
2019-03-24T05:26:22.050Z,47.57
2019-03-24T05:28:54.851Z,42.40
2019-03-24T05:31:27.607Z,45.23
2019-03-24T05:34:00.708Z,42.90
2019-03-24T05:36:33.477Z,35.93
2019-03-24T05:39:07.771Z,35.53
2019-03-24T05:41:40.974Z,35.23
2019-03-24T05:44:13.733Z,34.47
2019-03-24T05:46:46.486Z,31.03
2019-03-24T05:49:19.258Z,29.63
2019-03-24T05:51:52.046Z,30.80
2019-03-24T05:54:24.798Z,28.57
2019-03-24T05:56:57.541Z,28.37
2019-03-24T05:59:30.329Z,31.30
2019-03-24T06:02:03.203Z,28.37
2019-03-24T06:04:35.947Z,28.10
2019-03-24T06:07:08.827Z,29.80
2019-03-24T06:09:41.937Z,27.77
2019-03-24T06:12:14.709Z,28.63
2019-03-24T06:14:47.499Z,27.33
2019-03-24T06:17:20.261Z,27.83
2019-03-24T06:19:53.095Z,29.83
2019-03-24T06:22:25.875Z,25.80
2019-03-24T06:24:58.813Z,25.63
2019-03-24T06:27:31.578Z,24.30
2019-03-24T06:30:07.788Z,24.20
2019-03-24T06:32:40.548Z,23.77
2019-03-24T06:35:13.378Z,24.47
2019-03-24T06:37:46.183Z,26.40
2019-03-24T06:40:19.866Z,23.03
2019-03-24T06:42:52.822Z,24.03
2019-03-24T06:45:28.584Z,26.20
2019-03-24T06:48:00.054Z,25.30
2019-03-24T06:50:32.783Z,25.50
2019-03-24T06:53:05.522Z,24.23
2019-03-24T06:55:38.320Z,25.30
2019-03-24T06:58:11.129Z,24.10
2019-03-24T07:00:43.875Z,24.90
2019-03-24T07:03:16.668Z,23.63
2019-03-24T07:05:49.544Z,23.73
2019-03-24T07:08:22.321Z,21.17
2019-03-24T07:10:55.101Z,20.23
2019-03-24T07:13:28.031Z,20.57
2019-03-24T07:16:01.309Z,18.57
2019-03-24T07:18:34.118Z,18.73
2019-03-24T07:21:06.880Z,18.90
2019-03-24T07:23:39.714Z,18.80
2019-03-24T07:26:12.518Z,17.60
2019-03-24T07:28:45.346Z,18.27
2019-03-24T07:31:18.099Z,17.57
2019-03-24T07:33:51.311Z,19.07
2019-03-24T07:36:24.077Z,18.13
2019-03-24T07:38:56.865Z,18.93
2019-03-24T07:41:29.656Z,17.40
2019-03-24T07:44:02.423Z,17.10
2019-03-24T07:46:35.271Z,17.47
2019-03-24T07:49:08.078Z,17.97
2019-03-24T07:51:41.142Z,17.97
2019-03-24T07:54:14.011Z,16.03
2019-03-24T07:56:46.838Z,17.60
2019-03-24T07:59:19.645Z,16.03
2019-03-24T08:01:52.433Z,16.23
2019-03-24T08:04:25.273Z,15.10
2019-03-24T08:06:58.063Z,14.25
2019-03-24T08:09:30.849Z,15.98
2019-03-24T08:12:04.023Z,13.08
2019-03-24T08:14:36.797Z,13.48
2019-03-24T08:17:09.585Z,14.20
2019-03-24T08:19:42.421Z,15.90
2019-03-24T08:22:15.206Z,14.63
2019-03-24T08:24:47.964Z,51.00
2019-03-24T08:27:26.888Z,17.62
2019-03-24T08:29:59.660Z,13.58
2019-03-24T08:32:32.489Z,13.40
2019-03-24T08:35:06.456Z,12.55
2019-03-24T08:37:39.312Z,12.82
2019-03-24T08:40:12.149Z,12.28
2019-03-24T08:42:44.948Z,11.33
2019-03-24T08:45:27.795Z,11.63
2019-03-24T08:48:01.143Z,13.93
2019-03-24T08:50:33.936Z,11.57
2019-03-24T08:53:06.730Z,13.70
2019-03-24T08:55:39.513Z,25.75
2019-03-24T08:58:12.300Z,13.28
2019-03-24T09:00:45.076Z,11.60
2019-03-24T09:03:17.805Z,11.88
2019-03-24T09:05:51.068Z,11.33
2019-03-24T09:08:23.836Z,10.88
2019-03-24T09:10:56.626Z,18.57
2019-03-24T09:13:29.451Z,27.20
2019-03-24T09:16:02.319Z,18.85
2019-03-24T09:18:35.042Z,12.25
2019-03-24T09:21:07.919Z,12.15
2019-03-24T09:23:41.048Z,12.05
2019-03-24T09:26:13.849Z,10.68
2019-03-24T09:28:46.631Z,10.35
2019-03-24T09:31:19.388Z,9.35
2019-03-24T09:33:52.229Z,9.65
2019-03-24T09:36:25.170Z,10.10
2019-03-24T09:38:57.956Z,9.73
2019-03-24T09:41:30.723Z,9.25
2019-03-24T09:44:03.538Z,8.43
2019-03-24T09:46:36.393Z,8.48
2019-03-24T09:49:09.158Z,8.60
2019-03-24T09:51:41.954Z,9.08
2019-03-24T09:54:14.825Z,9.18
2019-03-24T09:56:47.593Z,28.32
2019-03-24T09:59:20.439Z,8.08
2019-03-24T10:01:53.164Z,9.68
2019-03-24T10:04:25.979Z,9.53
2019-03-24T10:06:58.761Z,8.60
2019-03-24T10:09:31.874Z,7.90
2019-03-24T10:12:04.733Z,8.73
2019-03-24T10:14:37.497Z,7.65
2019-03-24T10:17:10.279Z,8.30
2019-03-24T10:19:43.091Z,8.38
2019-03-24T10:22:15.824Z,10.20
2019-03-24T10:24:48.578Z,8.58
2019-03-24T10:27:21.631Z,8.75
2019-03-24T10:29:54.419Z,8.98
2019-03-24T10:32:27.197Z,11.25
2019-03-24T10:35:00.325Z,10.60
2019-03-24T10:37:33.112Z,9.88
2019-03-24T10:40:06.350Z,9.05
2019-03-24T10:42:39.797Z,9.80
2019-03-24T10:45:13.399Z,9.45
2019-03-24T10:47:46.174Z,9.15
2019-03-24T10:50:19.138Z,9.60
2019-03-24T10:52:52.099Z,10.15
2019-03-24T10:55:24.866Z,14.83
2019-03-24T10:57:57.700Z,10.10
2019-03-24T11:00:44.658Z,9.70
2019-03-24T11:03:17.507Z,9.73
2019-03-24T11:05:50.274Z,8.83
2019-03-24T11:08:23.061Z,9.75
2019-03-24T11:10:55.924Z,10.98
2019-03-24T11:13:28.762Z,10.18
2019-03-24T11:16:01.879Z,11.60
2019-03-24T11:18:34.674Z,10.35
2019-03-24T11:21:08.880Z,11.83
2019-03-24T11:32:51.954Z,12.18
2019-03-24T11:35:27.623Z,12.40
2019-03-24T11:38:01.040Z,11.45
2019-03-24T11:40:33.877Z,14.78
2019-03-24T11:43:07.829Z,12.60
2019-03-24T11:45:41.024Z,11.97
2019-03-24T11:48:13.861Z,8.95
2019-03-24T11:50:46.794Z,11.78
2019-03-24T11:53:19.718Z,11.90
2019-03-24T11:55:52.622Z,10.28
2019-03-24T11:58:25.420Z,8.43
2019-03-24T12:00:58.342Z,11.18
2019-03-24T12:03:31.101Z,9.23
2019-03-24T12:06:13.911Z,10.82
2019-03-24T12:08:38.920Z,12.15
2019-03-24T12:11:12.221Z,12.25
2019-03-24T12:13:45.050Z,15.35
2019-03-24T12:16:17.880Z,10.68
2019-03-24T12:18:50.710Z,12.07
2019-03-24T12:21:23.706Z,13.13
2019-03-24T12:23:56.489Z,12.90
2019-03-24T12:26:29.371Z,15.07
2019-03-24T12:29:02.320Z,14.37
2019-03-24T12:31:35.234Z,16.00
2019-03-24T12:34:08.105Z,14.73
2019-03-24T12:36:41.356Z,13.77
2019-03-24T12:39:14.208Z,10.87
2019-03-24T12:41:47.071Z,10.60
2019-03-24T12:44:20.081Z,12.33
2019-03-24T12:46:52.991Z,11.63
2019-03-24T12:49:25.825Z,11.03
2019-03-24T12:51:58.666Z,11.60
2019-03-24T12:54:32.690Z,13.57
2019-03-24T12:57:05.459Z,12.33
2019-03-24T12:59:38.313Z,12.20
2019-03-24T13:02:11.538Z,11.80
2019-03-24T13:04:44.485Z,13.73
2019-03-24T13:07:17.288Z,14.20
2019-03-24T13:09:50.136Z,12.70
2019-03-24T13:12:23.136Z,12.10
2019-03-24T13:14:55.942Z,12.43
2019-03-24T13:17:28.832Z,13.73
2019-03-24T13:20:01.911Z,13.83
2019-03-24T13:22:35.455Z,14.60
2019-03-24T13:25:08.810Z,13.03
2019-03-24T13:27:41.669Z,12.03
2019-03-24T13:30:14.701Z,11.90
2019-03-24T13:32:48.583Z,10.93
2019-03-24T13:35:40.271Z,12.67
2019-03-24T13:38:12.398Z,10.53
2019-03-24T13:40:45.226Z,15.30
2019-03-24T13:43:18.001Z,20.43
2019-03-24T13:45:51.326Z,12.30
2019-03-24T13:48:24.169Z,19.27
2019-03-24T13:50:57.022Z,15.40
2019-03-24T13:53:29.866Z,16.67
2019-03-24T13:56:02.744Z,12.40
2019-03-24T13:58:37.904Z,14.57
2019-03-24T14:01:11.077Z,12.83
2019-03-24T14:03:43.932Z,13.77
2019-03-24T14:06:16.819Z,16.13
2019-03-24T14:08:49.787Z,14.70
2019-03-24T14:11:24.257Z,15.13
2019-03-24T14:13:57.195Z,13.50
2019-03-24T14:16:31.175Z,11.73
2019-03-24T14:19:06.350Z,13.57
2019-03-24T14:21:39.381Z,13.33
2019-03-24T14:24:12.404Z,13.70
2019-03-24T14:26:45.451Z,9.73
2019-03-24T14:29:18.265Z,11.27
2019-03-24T14:31:51.156Z,14.87
2019-03-24T14:34:26.841Z,15.37
2019-03-24T14:37:00.875Z,13.13
2019-03-24T14:39:33.776Z,13.93
2019-03-24T14:42:06.905Z,11.23
2019-03-24T14:44:39.794Z,13.67
2019-03-24T14:47:12.726Z,11.47
2019-03-24T14:49:45.659Z,12.87
2019-03-24T14:52:18.662Z,14.30
2019-03-24T14:54:51.427Z,14.53
2019-03-24T14:57:24.391Z,25.80
2019-03-24T14:59:57.370Z,12.47
2019-03-24T15:02:30.988Z,17.80
2019-03-24T15:05:03.833Z,16.77
2019-03-24T15:07:36.684Z,19.53
2019-03-24T15:10:09.706Z,14.50
2019-03-24T15:12:42.631Z,16.03
2019-03-24T15:15:15.508Z,12.70
2019-03-24T15:17:48.342Z,12.47
2019-03-24T15:20:21.389Z,12.10
2019-03-24T15:22:54.271Z,10.63
2019-03-24T15:25:27.165Z,10.50
2019-03-24T15:28:00.036Z,13.57
2019-03-24T15:30:32.931Z,14.07
2019-03-24T15:33:05.765Z,11.47
2019-03-24T15:35:38.674Z,16.67
2019-03-24T15:38:11.888Z,13.97
2019-03-24T15:40:45.031Z,11.87
2019-03-24T15:43:17.965Z,12.93
2019-03-24T15:45:51.231Z,12.37
2019-03-24T15:48:24.050Z,13.90
2019-03-24T15:50:56.839Z,16.13
2019-03-24T15:53:29.680Z,27.77
2019-03-24T15:56:02.551Z,26.80
2019-03-24T15:58:35.569Z,18.77
2019-03-24T16:01:08.347Z,15.33
2019-03-24T16:03:41.700Z,20.83
2019-03-24T16:06:14.476Z,17.57
2019-03-24T16:08:47.241Z,19.10
2019-03-24T16:11:20.178Z,15.27
2019-03-24T16:13:52.968Z,14.17
2019-03-24T16:16:25.788Z,14.07
2019-03-24T16:18:58.709Z,13.43
2019-03-24T16:21:31.609Z,15.90
2019-03-24T16:24:04.408Z,14.97
2019-03-24T16:26:37.256Z,16.13
2019-03-24T16:29:10.047Z,15.70
2019-03-24T16:31:42.944Z,14.13
2019-03-24T16:34:15.759Z,15.83
2019-03-24T16:36:48.663Z,11.37
2019-03-24T16:39:21.903Z,15.70
2019-03-24T16:41:54.764Z,13.97
2019-03-24T16:44:27.695Z,16.07
2019-03-24T16:47:00.777Z,18.73
2019-03-24T16:49:33.603Z,17.60
2019-03-24T16:52:06.504Z,15.77
2019-03-24T16:54:39.485Z,20.23
2019-03-24T16:57:12.416Z,23.57
2019-03-24T16:59:45.347Z,14.90
2019-03-24T17:02:18.470Z,15.47
2019-03-24T17:04:51.261Z,14.67
2019-03-24T17:07:24.097Z,16.63
2019-03-24T17:09:58.793Z,18.23
2019-03-24T17:12:31.635Z,23.27
2019-03-24T17:15:04.833Z,27.77
2019-03-24T17:17:38.403Z,24.00
2019-03-24T17:20:12.495Z,18.63
2019-03-24T17:22:45.344Z,21.17
2019-03-24T17:25:18.432Z,23.90
2019-03-24T17:27:51.242Z,20.53
2019-03-24T17:30:24.112Z,27.30
2019-03-24T17:32:56.971Z,27.03
2019-03-24T17:35:29.923Z,23.80
2019-03-24T17:38:02.766Z,25.67
2019-03-24T17:40:39.105Z,27.20
2019-03-24T17:43:11.180Z,30.50
2019-03-24T17:45:44.130Z,24.23
2019-03-24T17:48:16.964Z,22.60
2019-03-24T17:50:49.927Z,30.17
2019-03-24T17:53:22.730Z,38.30
2019-03-24T17:55:57.421Z,35.23
2019-03-24T17:58:32.939Z,28.50
2019-03-24T18:01:06.069Z,25.00
2019-03-24T18:03:38.867Z,24.37
2019-03-24T18:06:12.293Z,25.17
2019-03-24T18:08:45.193Z,28.97
2019-03-24T18:11:18.035Z,29.97
2019-03-24T18:13:51.027Z,26.77
2019-03-24T18:16:23.933Z,32.43
2019-03-24T18:18:56.772Z,26.83
2019-03-24T18:21:29.777Z,26.00
2019-03-24T18:24:02.755Z,24.73
2019-03-24T18:26:35.903Z,30.13
2019-03-24T18:29:08.731Z,28.43
2019-03-24T18:31:41.993Z,30.30
2019-03-24T18:34:14.859Z,28.47
2019-03-24T18:36:47.669Z,27.23
2019-03-24T18:39:20.571Z,37.00
2019-03-24T18:41:53.467Z,34.90
2019-03-24T18:44:26.351Z,30.47
2019-03-24T18:46:59.256Z,52.17
2019-03-24T18:49:32.129Z,47.27
2019-03-24T18:52:04.930Z,52.73
2019-03-24T18:54:37.918Z,47.17
2019-03-24T18:57:11.098Z,47.47
2019-03-24T18:59:44.070Z,39.23
2019-03-24T19:02:16.962Z,43.47
2019-03-24T19:04:49.880Z,40.10
2019-03-24T19:07:22.688Z,40.33
2019-03-24T19:09:55.485Z,38.20
2019-03-24T19:12:28.319Z,42.73
2019-03-24T19:15:01.134Z,42.73
2019-03-24T19:17:34.111Z,46.53
2019-03-24T19:20:08.196Z,41.23
2019-03-24T19:22:41.026Z,36.83
2019-03-24T19:25:14.131Z,28.57
2019-03-24T19:27:47.073Z,35.90
2019-03-24T19:30:22.750Z,31.97
2019-03-24T19:32:55.688Z,28.47
2019-03-24T19:35:28.515Z,27.37
2019-03-24T19:38:02.684Z,21.47
2019-03-24T19:40:35.698Z,21.30
2019-03-24T19:43:08.686Z,25.37
2019-03-24T19:45:41.533Z,20.30
2019-03-24T19:48:14.433Z,22.40
2019-03-24T19:50:47.218Z,21.60
2019-03-24T19:53:20.064Z,18.97
2019-03-24T19:55:52.977Z,16.27
2019-03-24T19:58:25.942Z,16.73
2019-03-24T20:00:58.788Z,16.43
2019-03-24T20:03:31.868Z,14.57
2019-03-24T20:06:04.837Z,15.23
2019-03-24T20:08:37.666Z,18.53
2019-03-24T20:11:10.507Z,18.23
2019-03-24T20:13:43.907Z,23.87
2019-03-24T20:16:17.863Z,21.63
2019-03-24T20:18:50.729Z,17.63
2019-03-24T20:21:23.595Z,15.43
2019-03-24T20:23:56.399Z,15.03
2019-03-24T20:26:29.274Z,11.57
2019-03-24T20:29:04.342Z,17.50
2019-03-24T20:31:37.149Z,17.07
2019-03-24T20:34:10.176Z,16.47
2019-03-24T20:36:43.263Z,20.20
2019-03-24T20:39:16.281Z,20.90
2019-03-24T20:41:49.101Z,16.83
2019-03-24T20:44:22.161Z,16.20
2019-03-24T20:46:54.977Z,18.37
2019-03-24T20:49:27.857Z,21.47
2019-03-24T20:52:01.073Z,24.13
2019-03-24T20:54:33.912Z,25.83
2019-03-24T20:57:06.741Z,25.47
2019-03-24T20:59:39.646Z,24.97
2019-03-24T21:02:12.512Z,17.80
2019-03-24T21:04:45.275Z,16.20
2019-03-24T21:07:18.136Z,20.70
2019-03-24T21:09:50.964Z,26.97
2019-03-24T21:12:23.718Z,22.73
2019-03-24T21:14:56.560Z,28.00
2019-03-24T21:17:29.328Z,28.13
2019-03-24T21:20:02.259Z,24.67
2019-03-24T21:22:35.205Z,17.43
2019-03-24T21:25:09.029Z,14.03
2019-03-24T21:27:42.014Z,13.87
2019-03-24T21:30:15.281Z,15.10
2019-03-24T21:32:48.191Z,21.23
2019-03-24T21:35:21.364Z,16.00
2019-03-24T21:37:54.235Z,12.23
2019-03-24T21:40:27.089Z,10.53
2019-03-24T21:42:59.987Z,11.20
2019-03-24T21:45:32.855Z,9.30
2019-03-24T21:48:06.377Z,11.30
2019-03-24T21:50:39.398Z,15.20
2019-03-24T21:53:12.229Z,15.60
2019-03-24T21:55:45.286Z,14.07
2019-03-24T21:58:18.100Z,14.53
2019-03-24T22:00:51.450Z,24.00
2019-03-24T22:03:24.244Z,21.27
2019-03-24T22:05:57.103Z,21.83
2019-03-24T22:08:30.014Z,20.50
2019-03-24T22:11:02.848Z,20.67
2019-03-24T22:13:35.679Z,20.27
2019-03-24T22:16:08.490Z,22.40
2019-03-24T22:18:41.565Z,19.93
2019-03-24T22:21:14.377Z,19.33
2019-03-24T22:23:52.086Z,16.20
2019-03-24T22:26:22.171Z,21.93
2019-03-24T22:28:55.180Z,23.30
2019-03-24T22:31:28.105Z,23.57
2019-03-24T22:34:01.502Z,21.30
2019-03-24T22:36:34.315Z,20.20
2019-03-24T22:39:09.050Z,21.27
2019-03-24T22:41:43.846Z,22.93
2019-03-24T22:44:16.375Z,22.07
2019-03-24T22:46:49.158Z,21.47
2019-03-24T22:49:21.983Z,23.30
2019-03-24T22:52:06.481Z,18.83
2019-03-24T22:54:29.399Z,17.20
2019-03-24T22:57:03.408Z,20.13
2019-03-24T22:59:36.228Z,20.03
2019-03-24T23:02:09.197Z,20.90
2019-03-24T23:04:42.157Z,20.20
2019-03-24T23:07:14.956Z,18.00
2019-03-24T23:09:47.815Z,22.00
2019-03-24T23:12:21.006Z,22.93
2019-03-24T23:14:53.875Z,21.07
2019-03-24T23:17:26.783Z,21.47
2019-03-24T23:19:59.560Z,25.50
2019-03-24T23:22:32.446Z,18.67
2019-03-24T23:25:05.247Z,20.30
2019-03-24T23:27:38.071Z,19.87
2019-03-24T23:30:12.506Z,23.00
2019-03-24T23:32:45.326Z,25.37
2019-03-24T23:35:18.108Z,24.10
2019-03-24T23:37:51.027Z,23.13
2019-03-24T23:40:26.730Z,23.70
2019-03-24T23:42:59.808Z,23.33
2019-03-24T23:45:33.883Z,21.63
2019-03-24T23:48:07.444Z,29.20
2019-03-24T23:50:40.201Z,27.20
2019-03-24T23:53:13.072Z,29.30
2019-03-24T23:55:45.858Z,28.77
2019-03-24T23:58:18.708Z,26.87
